logo
Search for airport 
image banner adimage banner adimage banner ad
image banner ad

EHH021 - Bronkhorst

Located in , Netherlands

ICAO - , IATA -

Data provided by Airmate  

General information

Coordinates: N51°58'56" E6°25'58"
Elevation is 54 feet MSL.
 
View others Airports in Gelderland

Operational data

Special qualification required
Current time UTC:
Current local time:
Weather at : EHDL - Deelen ( 39 km )
METAR: EHDL 150925Z AUTO 21018KT 140V280 9999 BKN024 BKN028 BKN033 11/05 Q1006 WHT
View NOTAMs / SUP AIP / TFR affecting this airport [VIEW]
Communications frequencies: [VIEW]

Runways:

Airport contact information

Address: Netherlands

Satellite view of EHH021